sensor_id;sensor_type;location;lat;lon;timestamp;pressure;altitude;pressure_sealevel;temperature;humidity
31062;BME280;17724;53.546;9.974;2022-09-12T00:03:27;101814.53;;;17.81;89.74
31062;BME280;17724;53.546;9.974;2022-09-12T00:07:28;101825.41;;;17.78;90.99
31062;BME280;17724;53.546;9.974;2022-09-12T00:11:28;101821.78;;;17.77;91.79
31062;BME280;17724;53.546;9.974;2022-09-12T00:15:29;101824.84;;;17.76;91.74
31062;BME280;17724;53.546;9.974;2022-09-12T00:19:29;101821.75;;;17.67;91.29
31062;BME280;17724;53.546;9.974;2022-09-12T00:23:31;101810.34;;;17.63;91.01
31062;BME280;17724;53.546;9.974;2022-09-12T00:27:31;101818.44;;;17.65;91.03
31062;BME280;17724;53.546;9.974;2022-09-12T00:31:32;101804.78;;;17.63;91.45
31062;BME280;17724;53.546;9.974;2022-09-12T00:35:32;101794.50;;;17.59;91.40
31062;BME280;17724;53.546;9.974;2022-09-12T00:39:33;101792.84;;;17.58;91.66
31062;BME280;17724;53.546;9.974;2022-09-12T00:43:43;101798.72;;;17.56;91.71
31062;BME280;17724;53.546;9.974;2022-09-12T00:47:44;101792.84;;;17.63;92.56
31062;BME280;17724;53.546;9.974;2022-09-12T00:51:54;101788.09;;;17.63;92.27
31062;BME280;17724;53.546;9.974;2022-09-12T00:55:58;101797.81;;;17.71;92.23
31062;BME280;17724;53.546;9.974;2022-09-12T01:00:05;101798.41;;;17.68;92.35
31062;BME280;17724;53.546;9.974;2022-09-12T01:04:10;101801.47;;;17.61;92.25
31062;BME280;17724;53.546;9.974;2022-09-12T01:08:11;101790.06;;;17.58;92.39
31062;BME280;17724;53.546;9.974;2022-09-12T01:12:13;101782.88;;;17.52;92.94
31062;BME280;17724;53.546;9.974;2022-09-12T01:16:14;101775.91;;;17.49;92.32
31062;BME280;17724;53.546;9.974;2022-09-12T01:20:30;101776.75;;;17.39;92.15
31062;BME280;17724;53.546;9.974;2022-09-12T01:29:02;101775.94;;;17.44;92.67
31062;BME280;17724;53.546;9.974;2022-09-12T01:33:32;101785.63;;;17.46;92.91
31062;BME280;17724;53.546;9.974;2022-09-12T01:38:02;101775.91;;;17.49;93.40
31062;BME280;17724;53.546;9.974;2022-09-12T01:42:43;101775.63;;;17.51;93.75
31062;BME280;17724;53.546;9.974;2022-09-12T01:46:53;101768.09;;;17.51;93.89
31062;BME280;17724;53.546;9.974;2022-09-12T01:51:35;101757.28;;;17.49;93.99
31062;BME280;17724;53.546;9.974;2022-09-12T01:55:44;101759.81;;;17.41;94.16
31062;BME280;17724;53.546;9.974;2022-09-12T01:59:48;101758.16;;;17.40;95.00
31062;BME280;17724;53.546;9.974;2022-09-12T02:04:01;101753.44;;;17.25;94.89
31062;BME280;17724;53.546;9.974;2022-09-12T02:08:11;101755.06;;;17.31;94.61
31062;BME280;17724;53.546;9.974;2022-09-12T02:12:16;101752.03;;;17.17;94.36
31062;BME280;17724;53.546;9.974;2022-09-12T02:16:21;101743.69;;;17.22;95.35
31062;BME280;17724;53.546;9.974;2022-09-12T02:20:26;101736.19;;;17.28;94.89
31062;BME280;17724;53.546;9.974;2022-09-12T02:24:32;101740.09;;;17.22;95.23
31062;BME280;17724;53.546;9.974;2022-09-12T02:28:38;101731.78;;;17.12;96.26
31062;BME280;17724;53.546;9.974;2022-09-12T02:33:00;101740.66;;;16.78;98.26
31062;BME280;17724;53.546;9.974;2022-09-12T02:41:18;101735.06;;;17.19;96.90
31062;BME280;17724;53.546;9.974;2022-09-12T02:45:20;101730.38;;;17.04;96.08
31062;BME280;17724;53.546;9.974;2022-09-12T02:49:22;101724.28;;;16.77;96.26
31062;BME280;17724;53.546;9.974;2022-09-12T02:53:23;101727.06;;;16.77;96.12
31062;BME280;17724;53.546;9.974;2022-09-12T02:57:24;101728.72;;;16.78;96.08
31062;BME280;17724;53.546;9.974;2022-09-12T03:06:01;101731.50;;;16.88;96.26
31062;BME280;17724;53.546;9.974;2022-09-12T03:19:40;101736.78;;;16.99;96.62
31062;BME280;17724;53.546;9.974;2022-09-12T03:24:07;101739.28;;;17.01;96.29
31062;BME280;17724;53.546;9.974;2022-09-12T03:28:13;101737.63;;;16.80;95.91
31062;BME280;17724;53.546;9.974;2022-09-12T03:32:15;101738.19;;;16.77;97.60
31062;BME280;17724;53.546;9.974;2022-09-12T03:36:26;101741.66;;;16.31;98.54
31062;BME280;17724;53.546;9.974;2022-09-12T03:40:27;101744.69;;;16.19;100.00
31062;BME280;17724;53.546;9.974;2022-09-12T03:44:27;101744.78;;;16.50;99.89
31062;BME280;17724;53.546;9.974;2022-09-12T03:48:28;101747.22;;;16.21;98.21
31062;BME280;17724;53.546;9.974;2022-09-12T03:52:30;101739.13;;;16.14;98.48
31062;BME280;17724;53.546;9.974;2022-09-12T03:56:31;101751.63;;;16.17;97.83
31062;BME280;17724;53.546;9.974;2022-09-12T04:00:31;101729.63;;;15.90;98.90
31062;BME280;17724;53.546;9.974;2022-09-12T04:04:32;101739.81;;;15.74;99.84
31062;BME280;17724;53.546;9.974;2022-09-12T04:08:34;101739.53;;;15.75;100.00
31062;BME280;17724;53.546;9.974;2022-09-12T04:12:34;101738.03;;;15.58;100.00
31062;BME280;17724;53.546;9.974;2022-09-12T04:16:34;101732.44;;;15.47;100.00
31062;BME280;17724;53.546;9.974;2022-09-12T04:20:35;101731.66;;;15.52;100.00
31062;BME280;17724;53.546;9.974;2022-09-12T04:24:35;101722.44;;;15.46;100.00
31062;BME280;17724;53.546;9.974;2022-09-12T04:28:36;101728.81;;;15.42;100.00
31062;BME280;17724;53.546;9.974;2022-09-12T04:32:37;101724.09;;;15.42;100.00
31062;BME280;17724;53.546;9.974;2022-09-12T04:36:38;101720.16;;;15.33;100.00
31062;BME280;17724;53.546;9.974;2022-09-12T04:40:38;101725.69;;;15.28;100.00
31062;BME280;17724;53.546;9.974;2022-09-12T04:44:39;101722.66;;;15.35;100.00
31062;BME280;17724;53.546;9.974;2022-09-12T04:48:40;101726.47;;;15.66;100.00
31062;BME280;17724;53.546;9.974;2022-09-12T04:52:40;101729.56;;;15.74;100.00
31062;BME280;17724;53.546;9.974;2022-09-12T04:56:44;101726.53;;;15.76;100.00
31062;BME280;17724;53.546;9.974;2022-09-12T05:00:44;101727.06;;;15.73;100.00
31062;BME280;17724;53.546;9.974;2022-09-12T05:04:45;101723.94;;;15.64;100.00
31062;BME280;17724;53.546;9.974;2022-09-12T05:08:46;101730.25;;;15.55;100.00
31062;BME280;17724;53.546;9.974;2022-09-12T05:12:46;101727.47;;;15.55;100.00
31062;BME280;17724;53.546;9.974;2022-09-12T05:16:47;101726.31;;;15.45;100.00
31062;BME280;17724;53.546;9.974;2022-09-12T05:20:48;101734.97;;;15.59;100.00
31062;BME280;17724;53.546;9.974;2022-09-12T05:24:49;101723.66;;;15.61;100.00
31062;BME280;17724;53.546;9.974;2022-09-12T05:28:50;101733.03;;;15.55;100.00
31062;BME280;17724;53.546;9.974;2022-09-12T05:32:51;101728.88;;;15.57;100.00
31062;BME280;17724;53.546;9.974;2022-09-12T05:36:51;101732.34;;;15.32;100.00
31062;BME280;17724;53.546;9.974;2022-09-12T05:40:51;101734.63;;;15.40;100.00
31062;BME280;17724;53.546;9.974;2022-09-12T05:44:52;101731.16;;;15.23;100.00
31062;BME280;17724;53.546;9.974;2022-09-12T05:48:54;101736.84;;;15.43;100.00
31062;BME280;17724;53.546;9.974;2022-09-12T05:52:56;101738.53;;;15.44;100.00
31062;BME280;17724;53.546;9.974;2022-09-12T05:56:56;101742.97;;;15.45;99.72
31062;BME280;17724;53.546;9.974;2022-09-12T06:01:17;101740.72;;;15.42;100.00
31062;BME280;17724;53.546;9.974;2022-09-12T06:05:18;101741.56;;;15.00;100.00
31062;BME280;17724;53.546;9.974;2022-09-12T06:09:18;101740.16;;;15.03;100.00
31062;BME280;17724;53.546;9.974;2022-09-12T06:13:19;101744.56;;;14.99;100.00
31062;BME280;17724;53.546;9.974;2022-09-12T06:17:19;101740.50;;;15.12;100.00
31062;BME280;17724;53.546;9.974;2022-09-12T06:21:20;101751.75;;;15.32;100.00
31062;BME280;17724;53.546;9.974;2022-09-12T06:25:21;101751.31;;;15.50;100.00
31062;BME280;17724;53.546;9.974;2022-09-12T06:29:21;101747.41;;;15.46;99.43
31062;BME280;17724;53.546;9.974;2022-09-12T06:33:25;101743.91;;;15.24;99.60
31062;BME280;17724;53.546;9.974;2022-09-12T06:37:25;101748.47;;;15.03;99.69
31062;BME280;17724;53.546;9.974;2022-09-12T06:41:26;101751.38;;;15.18;100.00
31062;BME280;17724;53.546;9.974;2022-09-12T06:45:27;101747.63;;;15.40;99.91
31062;BME280;17724;53.546;9.974;2022-09-12T06:49:27;101740.41;;;15.39;99.25
31062;BME280;17724;53.546;9.974;2022-09-12T06:53:28;101733.06;;;15.12;99.45
31062;BME280;17724;53.546;9.974;2022-09-12T06:57:29;101729.38;;;15.01;100.00
31062;BME280;17724;53.546;9.974;2022-09-12T07:01:31;101726.22;;;15.25;100.00
31062;BME280;17724;53.546;9.974;2022-09-12T07:05:32;101738.41;;;15.71;100.00
31062;BME280;17724;53.546;9.974;2022-09-12T07:09:33;101745.88;;;15.66;99.36
31062;BME280;17724;53.546;9.974;2022-09-12T07:13:33;101735.63;;;15.66;98.89
31062;BME280;17724;53.546;9.974;2022-09-12T07:17:33;101744.44;;;15.63;98.38
31062;BME280;17724;53.546;9.974;2022-09-12T07:21:34;101740.94;;;15.83;98.45
31062;BME280;17724;53.546;9.974;2022-09-12T07:25:41;101742.13;;;15.92;98.27
31062;BME280;17724;53.546;9.974;2022-09-12T07:29:41;101732.09;;;15.86;97.41
31062;BME280;17724;53.546;9.974;2022-09-12T07:33:43;101719.94;;;16.02;97.87
31062;BME280;17724;53.546;9.974;2022-09-12T07:37:43;101726.41;;;16.29;97.29
31062;BME280;17724;53.546;9.974;2022-09-12T07:41:44;101727.56;;;16.48;96.67
31062;BME280;17724;53.546;9.974;2022-09-12T07:45:44;101715.34;;;16.69;96.13
31062;BME280;17724;53.546;9.974;2022-09-12T07:49:45;101709.00;;;16.84;95.36
31062;BME280;17724;53.546;9.974;2022-09-12T07:53:47;101708.16;;;17.04;94.37
31062;BME280;17724;53.546;9.974;2022-09-12T07:57:49;101713.41;;;17.21;93.50
31062;BME280;17724;53.546;9.974;2022-09-12T08:01:50;101724.22;;;17.33;92.26
31062;BME280;17724;53.546;9.974;2022-09-12T08:05:50;101723.31;;;17.58;91.69
31062;BME280;17724;53.546;9.974;2022-09-12T08:09:51;101724.13;;;17.68;91.24
31062;BME280;17724;53.546;9.974;2022-09-12T08:13:53;101734.38;;;17.83;90.47
31062;BME280;17724;53.546;9.974;2022-09-12T08:17:55;101722.06;;;18.05;89.26
31062;BME280;17724;53.546;9.974;2022-09-12T08:21:55;101725.25;;;18.27;89.32
31062;BME280;17724;53.546;9.974;2022-09-12T08:26:03;101721.38;;;18.28;88.61
31062;BME280;17724;53.546;9.974;2022-09-12T08:30:04;101731.13;;;18.26;88.19
31062;BME280;17724;53.546;9.974;2022-09-12T08:34:05;101728.28;;;18.36;87.60
31062;BME280;17724;53.546;9.974;2022-09-12T08:38:06;101722.63;;;18.51;86.69
31062;BME280;17724;53.546;9.974;2022-09-12T08:42:09;101722.31;;;18.92;86.07
31062;BME280;17724;53.546;9.974;2022-09-12T08:46:14;101717.88;;;18.86;83.89
31062;BME280;17724;53.546;9.974;2022-09-12T08:50:19;101719.09;;;19.09;83.77
31062;BME280;17724;53.546;9.974;2022-09-12T08:54:26;101709.50;;;19.20;82.58
31062;BME280;17724;53.546;9.974;2022-09-12T08:58:28;101710.28;;;19.50;81.85
31062;BME280;17724;53.546;9.974;2022-09-12T09:12:52;101698.38;;;19.68;80.90
31062;BME280;17724;53.546;9.974;2022-09-12T09:20:39;101683.19;;;20.17;79.02
31062;BME280;17724;53.546;9.974;2022-09-12T09:24:50;101680.78;;;20.10;77.82
31062;BME280;17724;53.546;9.974;2022-09-12T09:29:05;101687.34;;;20.20;78.13
31062;BME280;17724;53.546;9.974;2022-09-12T09:33:20;101684.09;;;20.12;78.40
31062;BME280;17724;53.546;9.974;2022-09-12T09:38:01;101686.66;;;20.47;77.35
31062;BME280;17724;53.546;9.974;2022-09-12T09:46:27;101677.75;;;20.26;76.41
31062;BME280;17724;53.546;9.974;2022-09-12T09:50:27;101669.47;;;20.39;75.50
31062;BME280;17724;53.546;9.974;2022-09-12T09:54:52;101672.47;;;20.43;74.97
31062;BME280;17724;53.546;9.974;2022-09-12T09:58:54;101668.00;;;20.61;74.74
31062;BME280;17724;53.546;9.974;2022-09-12T10:07:19;101665.28;;;20.37;73.54
31062;BME280;17724;53.546;9.974;2022-09-12T10:11:21;101662.72;;;20.40;73.48
31062;BME280;17724;53.546;9.974;2022-09-12T10:15:24;101661.13;;;20.72;74.35
31062;BME280;17724;53.546;9.974;2022-09-12T10:19:37;101658.06;;;20.55;73.11
31062;BME280;17724;53.546;9.974;2022-09-12T10:23:39;101658.31;;;20.72;72.90
31062;BME280;17724;53.546;9.974;2022-09-12T10:27:41;101654.81;;;20.80;72.66
31062;BME280;17724;53.546;9.974;2022-09-12T10:31:48;101647.81;;;20.83;72.46
31062;BME280;17724;53.546;9.974;2022-09-12T10:35:51;101651.00;;;20.90;72.68
31062;BME280;17724;53.546;9.974;2022-09-12T10:39:55;101655.50;;;21.05;71.33
31062;BME280;17724;53.546;9.974;2022-09-12T10:44:05;101650.41;;;20.93;69.68
31062;BME280;17724;53.546;9.974;2022-09-12T10:48:30;101646.13;;;20.82;69.33
31062;BME280;17724;53.546;9.974;2022-09-12T10:52:31;101646.09;;;21.14;69.14
31062;BME280;17724;53.546;9.974;2022-09-12T11:00:58;101628.41;;;21.33;66.20
31062;BME280;17724;53.546;9.974;2022-09-12T11:09:25;101625.59;;;21.47;65.01
31062;BME280;17724;53.546;9.974;2022-09-12T11:30:36;101608.91;;;21.55;64.83
31062;BME280;17724;53.546;9.974;2022-09-12T11:39:12;101596.63;;;21.79;65.80
31062;BME280;17724;53.546;9.974;2022-09-12T11:47:33;101603.97;;;21.38;65.03
31062;BME280;17724;53.546;9.974;2022-09-12T11:52:36;101600.91;;;21.49;64.90
31062;BME280;17724;53.546;9.974;2022-09-12T11:56:16;101598.53;;;21.42;64.96
31062;BME280;17724;53.546;9.974;2022-09-12T12:04:24;101598.94;;;21.63;65.39
31062;BME280;17724;53.546;9.974;2022-09-12T12:08:28;101599.72;;;21.77;64.56
31062;BME280;17724;53.546;9.974;2022-09-12T12:12:30;101595.19;;;21.68;64.17
31062;BME280;17724;53.546;9.974;2022-09-12T12:16:33;101574.94;;;21.84;64.48
31062;BME280;17724;53.546;9.974;2022-09-12T12:20:36;101569.94;;;21.81;63.98
31062;BME280;17724;53.546;9.974;2022-09-12T12:24:53;101573.47;;;21.87;64.23
31062;BME280;17724;53.546;9.974;2022-09-12T12:28:57;101577.97;;;22.10;64.05
31062;BME280;17724;53.546;9.974;2022-09-12T12:33:50;101575.19;;;21.97;62.80
31062;BME280;17724;53.546;9.974;2022-09-12T12:45:46;101566.47;;;21.98;62.57
31062;BME280;17724;53.546;9.974;2022-09-12T12:49:58;101562.00;;;21.97;62.70
31062;BME280;17724;53.546;9.974;2022-09-12T12:54:01;101556.03;;;22.12;62.80
31062;BME280;17724;53.546;9.974;2022-09-12T12:58:04;101558.25;;;22.16;62.83
31062;BME280;17724;53.546;9.974;2022-09-12T13:02:05;101552.31;;;22.17;61.81
31062;BME280;17724;53.546;9.974;2022-09-12T13:06:07;101553.25;;;22.12;61.76
31062;BME280;17724;53.546;9.974;2022-09-12T13:10:24;101540.28;;;22.17;60.92
31062;BME280;17724;53.546;9.974;2022-09-12T13:18:45;101519.03;;;22.16;59.97
31062;BME280;17724;53.546;9.974;2022-09-12T13:22:49;101509.28;;;22.13;60.19
31062;BME280;17724;53.546;9.974;2022-09-12T13:26:50;101501.69;;;22.13;59.61
31062;BME280;17724;53.546;9.974;2022-09-12T13:35:22;101496.56;;;22.38;59.71
31062;BME280;17724;53.546;9.974;2022-09-12T13:43:39;101483.22;;;22.35;59.27
31062;BME280;17724;53.546;9.974;2022-09-12T13:47:43;101473.00;;;22.39;59.83
31062;BME280;17724;53.546;9.974;2022-09-12T13:51:44;101473.56;;;22.19;59.72
31062;BME280;17724;53.546;9.974;2022-09-12T13:55:48;101461.91;;;22.34;59.96
31062;BME280;17724;53.546;9.974;2022-09-12T13:59:54;101459.81;;;22.40;60.10
31062;BME280;17724;53.546;9.974;2022-09-12T14:03:55;101458.41;;;22.51;60.52
31062;BME280;17724;53.546;9.974;2022-09-12T14:08:14;101453.81;;;22.63;60.48
31062;BME280;17724;53.546;9.974;2022-09-12T14:12:28;101456.88;;;22.45;60.62
31062;BME280;17724;53.546;9.974;2022-09-12T14:16:31;101449.16;;;22.50;61.00
31062;BME280;17724;53.546;9.974;2022-09-12T14:20:38;101446.47;;;22.45;60.35
31062;BME280;17724;53.546;9.974;2022-09-12T14:24:41;101450.47;;;22.53;60.44
31062;BME280;17724;53.546;9.974;2022-09-12T14:28:42;101447.91;;;22.74;62.21
31062;BME280;17724;53.546;9.974;2022-09-12T14:33:18;101438.03;;;22.76;60.86
31062;BME280;17724;53.546;9.974;2022-09-12T14:37:20;101448.50;;;22.62;60.85
31062;BME280;17724;53.546;9.974;2022-09-12T14:41:23;101442.56;;;22.55;61.40
31062;BME280;17724;53.546;9.974;2022-09-12T14:45:29;101438.34;;;22.66;61.42
31062;BME280;17724;53.546;9.974;2022-09-12T14:49:35;101423.28;;;22.62;59.36
31062;BME280;17724;53.546;9.974;2022-09-12T14:53:36;101416.00;;;22.52;58.97
31062;BME280;17724;53.546;9.974;2022-09-12T14:57:38;101415.19;;;22.52;59.45
31062;BME280;17724;53.546;9.974;2022-09-12T15:01:39;101409.84;;;22.33;60.03
31062;BME280;17724;53.546;9.974;2022-09-12T15:05:47;101408.56;;;22.48;60.32
31062;BME280;17724;53.546;9.974;2022-09-12T15:09:49;101411.53;;;22.43;59.56
31062;BME280;17724;53.546;9.974;2022-09-12T15:13:50;101406.31;;;22.58;59.74
31062;BME280;17724;53.546;9.974;2022-09-12T15:17:50;101402.50;;;22.54;59.22
31062;BME280;17724;53.546;9.974;2022-09-12T15:21:51;101397.09;;;22.67;60.47
31062;BME280;17724;53.546;9.974;2022-09-12T15:25:52;101393.47;;;22.66;59.50
31062;BME280;17724;53.546;9.974;2022-09-12T15:29:52;101388.19;;;22.65;60.23
31062;BME280;17724;53.546;9.974;2022-09-12T15:33:54;101377.44;;;22.58;59.61
31062;BME280;17724;53.546;9.974;2022-09-12T15:37:55;101379.56;;;22.52;59.82
31062;BME280;17724;53.546;9.974;2022-09-12T15:41:56;101372.97;;;22.57;59.83
31062;BME280;17724;53.546;9.974;2022-09-12T15:45:56;101371.50;;;22.51;60.42
31062;BME280;17724;53.546;9.974;2022-09-12T15:49:58;101370.88;;;22.62;61.11
31062;BME280;17724;53.546;9.974;2022-09-12T15:54:03;101369.19;;;22.53;60.29
31062;BME280;17724;53.546;9.974;2022-09-12T15:58:03;101360.47;;;22.54;60.63
31062;BME280;17724;53.546;9.974;2022-09-12T16:02:04;101357.66;;;22.54;60.82
31062;BME280;17724;53.546;9.974;2022-09-12T16:06:04;101351.38;;;22.57;60.05
31062;BME280;17724;53.546;9.974;2022-09-12T16:10:07;101354.69;;;22.51;60.23
31062;BME280;17724;53.546;9.974;2022-09-12T16:14:07;101349.72;;;22.48;60.38
31062;BME280;17724;53.546;9.974;2022-09-12T16:18:09;101348.09;;;22.64;60.92
31062;BME280;17724;53.546;9.974;2022-09-12T16:22:09;101341.50;;;22.51;59.67
31062;BME280;17724;53.546;9.974;2022-09-12T16:26:10;101333.53;;;22.45;59.52
31062;BME280;17724;53.546;9.974;2022-09-12T16:30:11;101334.00;;;22.38;59.83
31062;BME280;17724;53.546;9.974;2022-09-12T16:34:12;101336.13;;;22.24;60.13
31062;BME280;17724;53.546;9.974;2022-09-12T16:38:12;101332.69;;;22.27;60.11
31062;BME280;17724;53.546;9.974;2022-09-12T16:42:15;101327.63;;;22.46;61.27
31062;BME280;17724;53.546;9.974;2022-09-12T16:46:22;101332.72;;;22.35;60.92
31062;BME280;17724;53.546;9.974;2022-09-12T16:50:22;101323.47;;;22.26;61.38
31062;BME280;17724;53.546;9.974;2022-09-12T16:54:23;101323.66;;;22.38;61.79
31062;BME280;17724;53.546;9.974;2022-09-12T16:58:23;101318.47;;;22.15;61.82
31062;BME280;17724;53.546;9.974;2022-09-12T17:02:24;101314.50;;;22.16;61.85
31062;BME280;17724;53.546;9.974;2022-09-12T17:06:27;101306.53;;;22.09;61.67
31062;BME280;17724;53.546;9.974;2022-09-12T17:10:28;101299.94;;;22.05;62.15
31062;BME280;17724;53.546;9.974;2022-09-12T17:14:29;101292.88;;;22.07;62.35
31062;BME280;17724;53.546;9.974;2022-09-12T17:18:30;101284.25;;;21.95;62.71
31062;BME280;17724;53.546;9.974;2022-09-12T17:22:31;101282.75;;;21.89;63.34
31062;BME280;17724;53.546;9.974;2022-09-12T17:26:32;101279.47;;;21.96;64.41
31062;BME280;17724;53.546;9.974;2022-09-12T17:30:34;101278.78;;;21.90;64.68
31062;BME280;17724;53.546;9.974;2022-09-12T17:34:35;101275.31;;;21.84;64.54
31062;BME280;17724;53.546;9.974;2022-09-12T17:38:37;101268.69;;;21.72;64.47
31062;BME280;17724;53.546;9.974;2022-09-12T17:42:38;101263.94;;;21.50;65.18
31062;BME280;17724;53.546;9.974;2022-09-12T17:46:40;101266.41;;;21.43;65.94
31062;BME280;17724;53.546;9.974;2022-09-12T17:50:41;101268.00;;;21.35;65.92
31062;BME280;17724;53.546;9.974;2022-09-12T17:54:42;101263.91;;;21.41;66.41
31062;BME280;17724;53.546;9.974;2022-09-12T17:58:43;101263.41;;;21.39;66.46
31062;BME280;17724;53.546;9.974;2022-09-12T18:02:43;101258.38;;;21.27;66.42
31062;BME280;17724;53.546;9.974;2022-09-12T18:06:46;101260.19;;;21.32;66.36
31062;BME280;17724;53.546;9.974;2022-09-12T18:10:48;101260.34;;;21.27;66.90
31062;BME280;17724;53.546;9.974;2022-09-12T18:14:49;101261.28;;;21.22;67.35
31062;BME280;17724;53.546;9.974;2022-09-12T18:18:49;101250.84;;;21.14;68.21
31062;BME280;17724;53.546;9.974;2022-09-12T18:22:50;101258.66;;;21.26;68.07
31062;BME280;17724;53.546;9.974;2022-09-12T18:26:50;101248.13;;;21.23;68.45
31062;BME280;17724;53.546;9.974;2022-09-12T18:30:51;101248.00;;;21.28;68.04
31062;BME280;17724;53.546;9.974;2022-09-12T18:34:51;101236.88;;;21.14;68.22
31062;BME280;17724;53.546;9.974;2022-09-12T18:38:52;101231.59;;;20.90;69.09
31062;BME280;17724;53.546;9.974;2022-09-12T18:42:55;101225.50;;;20.65;70.38
31062;BME280;17724;53.546;9.974;2022-09-12T18:46:56;101226.22;;;20.71;70.61
31062;BME280;17724;53.546;9.974;2022-09-12T18:51:07;101220.16;;;20.78;70.96
31062;BME280;17724;53.546;9.974;2022-09-12T18:55:09;101218.66;;;20.72;71.87
31062;BME280;17724;53.546;9.974;2022-09-12T18:59:10;101213.75;;;20.77;71.81
31062;BME280;17724;53.546;9.974;2022-09-12T19:03:14;101214.72;;;20.73;71.79
31062;BME280;17724;53.546;9.974;2022-09-12T19:07:14;101215.41;;;20.78;71.28
31062;BME280;17724;53.546;9.974;2022-09-12T19:11:16;101211.53;;;20.65;72.04
31062;BME280;17724;53.546;9.974;2022-09-12T19:15:16;101209.25;;;20.67;72.04
31062;BME280;17724;53.546;9.974;2022-09-12T19:19:17;101206.69;;;20.57;72.47
31062;BME280;17724;53.546;9.974;2022-09-12T19:23:18;101202.44;;;20.60;72.30
31062;BME280;17724;53.546;9.974;2022-09-12T19:27:18;101206.75;;;20.66;72.37
31062;BME280;17724;53.546;9.974;2022-09-12T19:31:19;101181.13;;;20.64;72.52
31062;BME280;17724;53.546;9.974;2022-09-12T19:35:20;101186.78;;;20.36;72.44
31062;BME280;17724;53.546;9.974;2022-09-12T19:39:21;101181.69;;;20.38;72.79
31062;BME280;17724;53.546;9.974;2022-09-12T19:43:23;101170.97;;;20.32;73.12
31062;BME280;17724;53.546;9.974;2022-09-12T19:47:24;101162.78;;;19.85;74.79
31062;BME280;17724;53.546;9.974;2022-09-12T19:51:28;101163.28;;;19.60;76.01
31062;BME280;17724;53.546;9.974;2022-09-12T19:55:28;101168.38;;;19.72;75.84
31062;BME280;17724;53.546;9.974;2022-09-12T19:59:29;101179.94;;;19.79;75.92
31062;BME280;17724;53.546;9.974;2022-09-12T20:03:29;101162.16;;;19.88;75.66
31062;BME280;17724;53.546;9.974;2022-09-12T20:07:29;101162.06;;;19.80;75.75
31062;BME280;17724;53.546;9.974;2022-09-12T20:11:30;101159.25;;;19.93;75.86
31062;BME280;17724;53.546;9.974;2022-09-12T20:15:31;101159.88;;;19.90;75.41
31062;BME280;17724;53.546;9.974;2022-09-12T20:19:31;101142.81;;;19.92;75.74
31062;BME280;17724;53.546;9.974;2022-09-12T20:23:32;101139.31;;;19.86;75.55
31062;BME280;17724;53.546;9.974;2022-09-12T20:27:32;101139.13;;;19.69;75.97
31062;BME280;17724;53.546;9.974;2022-09-12T20:31:34;101141.22;;;19.63;76.14
31062;BME280;17724;53.546;9.974;2022-09-12T20:35:35;101137.16;;;19.56;75.94
31062;BME280;17724;53.546;9.974;2022-09-12T20:39:36;101131.16;;;19.49;75.88
31062;BME280;17724;53.546;9.974;2022-09-12T20:43:36;101125.66;;;19.57;75.52
31062;BME280;17724;53.546;9.974;2022-09-12T20:47:40;101121.97;;;19.48;76.06
31062;BME280;17724;53.546;9.974;2022-09-12T20:51:40;101105.66;;;19.55;75.96
31062;BME280;17724;53.546;9.974;2022-09-12T20:55:48;101098.81;;;19.34;76.86
31062;BME280;17724;53.546;9.974;2022-09-12T20:59:49;101104.19;;;19.30;77.23
31062;BME280;17724;53.546;9.974;2022-09-12T21:03:50;101098.00;;;19.19;77.67
31062;BME280;17724;53.546;9.974;2022-09-12T21:07:51;101093.75;;;19.22;77.60
31062;BME280;17724;53.546;9.974;2022-09-12T21:11:51;101079.41;;;19.15;78.15
31062;BME280;17724;53.546;9.974;2022-09-12T21:20:04;101055.13;;;19.02;78.30
31062;BME280;17724;53.546;9.974;2022-09-12T21:24:04;101061.63;;;18.83;79.01
31062;BME280;17724;53.546;9.974;2022-09-12T21:28:05;101041.16;;;18.74;79.74
31062;BME280;17724;53.546;9.974;2022-09-12T21:32:05;101033.50;;;18.66;80.55
31062;BME280;17724;53.546;9.974;2022-09-12T21:36:06;101030.09;;;18.55;80.60
31062;BME280;17724;53.546;9.974;2022-09-12T21:40:07;101035.34;;;18.57;80.68
31062;BME280;17724;53.546;9.974;2022-09-12T21:44:08;101040.91;;;18.57;80.72
31062;BME280;17724;53.546;9.974;2022-09-12T21:48:08;101051.03;;;18.66;80.74
31062;BME280;17724;53.546;9.974;2022-09-12T21:52:10;101046.84;;;18.83;79.72
31062;BME280;17724;53.546;9.974;2022-09-12T21:56:11;101044.63;;;18.66;79.78
31062;BME280;17724;53.546;9.974;2022-09-12T22:00:16;101043.97;;;18.74;79.79
31062;BME280;17724;53.546;9.974;2022-09-12T22:04:16;101040.56;;;18.77;79.42
31062;BME280;17724;53.546;9.974;2022-09-12T22:08:17;101043.00;;;18.65;79.21
31062;BME280;17724;53.546;9.974;2022-09-12T22:12:17;101028.13;;;18.69;79.11
31062;BME280;17724;53.546;9.974;2022-09-12T22:16:18;101012.13;;;18.61;79.34
31062;BME280;17724;53.546;9.974;2022-09-12T22:20:18;101001.28;;;18.46;79.30
31062;BME280;17724;53.546;9.974;2022-09-12T22:24:19;101004.16;;;18.41;79.89
31062;BME280;17724;53.546;9.974;2022-09-12T22:28:28;101001.72;;;18.53;79.47
31062;BME280;17724;53.546;9.974;2022-09-12T22:32:34;100994.78;;;18.51;79.00
31062;BME280;17724;53.546;9.974;2022-09-12T22:36:34;100988.00;;;18.57;78.49
31062;BME280;17724;53.546;9.974;2022-09-12T22:40:35;100976.75;;;18.48;78.10
31062;BME280;17724;53.546;9.974;2022-09-12T22:44:35;100982.00;;;18.36;78.31
31062;BME280;17724;53.546;9.974;2022-09-12T22:48:35;100968.69;;;18.46;78.21
31062;BME280;17724;53.546;9.974;2022-09-12T22:52:37;100967.97;;;18.41;78.30
31062;BME280;17724;53.546;9.974;2022-09-12T22:56:37;100963.09;;;18.46;78.46
31062;BME280;17724;53.546;9.974;2022-09-12T23:00:44;100956.22;;;18.44;77.68